createdAt,value
2019-04-11T13:05:21.094Z,574.0000
2019-04-11T13:05:36.967Z,572.0000
2019-04-11T13:05:53.774Z,572.0000
2019-04-11T13:06:10.826Z,573.0000
2019-04-11T13:06:35.393Z,575.0000
2019-04-11T13:06:48.769Z,555.0000
2019-04-11T13:07:04.954Z,572.0000
2019-04-11T13:07:21.798Z,572.0000
2019-04-11T13:07:38.876Z,556.0000
2019-04-11T13:07:56.031Z,565.0000
2019-04-11T13:08:12.940Z,557.0000
2019-04-11T13:08:35.174Z,565.0000
2019-04-11T13:08:51.933Z,569.0000
2019-04-11T13:09:08.940Z,569.0000
2019-04-11T13:09:50.346Z,567.0000
2019-04-11T13:10:07.042Z,586.0000
2019-04-11T13:10:24.153Z,585.0000
2019-04-11T13:10:40.991Z,585.0000
2019-04-11T13:10:58.127Z,585.0000
2019-04-11T13:23:18.648Z,578.0000
2019-04-11T13:23:46.135Z,580.0000
2019-04-11T13:23:52.911Z,579.0000
2019-04-11T13:23:59.892Z,578.0000
2019-04-11T13:32:22.869Z,585.0000
2019-04-11T13:32:29.630Z,581.0000
2019-04-11T13:32:36.544Z,584.0000
2019-04-11T13:32:43.599Z,583.0000
2019-04-11T13:32:50.576Z,587.0000
2019-04-11T13:32:57.589Z,587.0000
2019-04-11T13:33:04.588Z,587.0000
2019-04-11T13:33:11.557Z,587.0000
2019-04-11T13:33:18.569Z,588.0000
2019-04-11T13:33:25.686Z,587.0000
2019-04-11T13:33:32.569Z,587.0000
2019-04-11T13:33:39.575Z,589.0000
2019-04-11T13:33:46.554Z,588.0000
2019-04-11T13:33:53.578Z,589.0000
2019-04-11T13:34:00.589Z,588.0000
2019-04-11T13:34:07.566Z,588.0000
2019-04-11T13:34:14.579Z,588.0000
2019-04-11T13:34:21.590Z,588.0000
2019-04-11T13:34:27.699Z,589.0000
2019-04-11T13:34:34.597Z,587.0000
2019-04-11T13:34:41.554Z,587.0000
2019-04-11T13:34:48.607Z,588.0000
2019-04-11T13:34:55.591Z,589.0000
2019-04-11T13:35:02.574Z,588.0000
2019-04-11T13:35:09.597Z,588.0000
2019-04-11T13:35:16.587Z,588.0000
2019-04-11T13:35:23.597Z,588.0000
2019-04-11T13:35:30.675Z,588.0000
2019-04-11T13:35:37.583Z,588.0000
2019-04-11T13:35:44.578Z,589.0000
2019-04-11T13:35:51.587Z,588.0000
2019-04-11T13:35:58.552Z,588.0000
2019-04-11T13:36:05.582Z,588.0000
2019-04-11T13:36:12.582Z,587.0000
2019-04-11T13:36:19.538Z,588.0000
2019-04-11T13:36:26.588Z,588.0000
2019-04-11T13:36:33.635Z,589.0000
2019-04-11T13:36:39.578Z,588.0000
2019-04-11T13:36:46.559Z,588.0000
2019-04-11T13:36:53.781Z,588.0000
2019-04-11T13:36:59.581Z,588.0000
2019-04-11T13:37:06.616Z,588.0000
2019-04-11T13:37:13.574Z,589.0000
2019-04-11T13:37:20.529Z,588.0000
2019-04-11T13:37:27.595Z,589.0000
2019-04-11T13:37:34.664Z,588.0000
2019-04-11T13:37:41.591Z,589.0000
2019-04-11T13:37:48.569Z,589.0000
2019-04-11T13:37:55.559Z,588.0000
2019-04-11T13:38:02.560Z,588.0000
2019-04-11T13:38:09.601Z,588.0000
2019-04-11T13:38:17.355Z,589.0000
2019-04-11T13:38:24.589Z,588.0000
2019-04-11T13:38:31.597Z,588.0000
2019-04-11T13:38:38.653Z,588.0000
2019-04-11T13:38:45.526Z,587.0000
2019-04-11T13:38:52.553Z,589.0000
2019-04-11T13:39:02.323Z,586.0000
2019-04-11T13:39:09.557Z,588.0000
2019-04-11T13:39:16.571Z,587.0000
2019-04-11T13:39:23.567Z,587.0000
2019-04-11T13:39:30.569Z,587.0000
2019-04-11T13:39:37.588Z,588.0000
2019-04-11T13:39:46.572Z,587.0000
2019-04-11T13:39:53.619Z,589.0000
2019-04-11T13:40:00.579Z,588.0000
2019-04-11T13:40:07.598Z,588.0000
2019-04-11T13:40:14.560Z,588.0000
2019-04-11T13:40:21.588Z,589.0000
2019-04-11T13:40:28.581Z,588.0000
2019-04-11T13:40:35.630Z,588.0000
2019-04-11T13:40:42.580Z,588.0000
2019-04-11T13:40:49.640Z,588.0000
2019-04-11T13:40:56.602Z,590.0000
2019-04-11T13:41:03.604Z,588.0000
2019-04-11T13:41:10.645Z,589.0000
2019-04-11T13:41:19.988Z,589.0000
2019-04-11T13:41:26.649Z,589.0000
2019-04-11T13:41:33.577Z,589.0000
2019-04-11T13:41:40.560Z,589.0000
2019-04-11T13:41:47.625Z,589.0000
2019-04-11T13:41:54.672Z,590.0000
2019-04-11T13:42:01.598Z,589.0000
2019-04-11T13:42:08.632Z,590.0000
2019-04-11T13:42:15.591Z,588.0000
2019-04-11T13:42:22.617Z,589.0000
2019-04-11T13:42:29.649Z,587.0000
2019-04-11T13:42:36.602Z,587.0000
2019-04-11T13:42:43.586Z,588.0000
2019-04-11T13:42:50.580Z,587.0000
2019-04-11T13:42:57.720Z,588.0000
2019-04-11T13:43:04.565Z,587.0000
2019-04-11T13:58:17.738Z,585.0000
2019-04-11T13:58:25.137Z,585.0000
2019-04-11T13:58:32.150Z,586.0000
2019-04-11T13:58:39.127Z,587.0000
2019-04-11T13:58:46.189Z,587.0000
2019-04-11T13:58:53.159Z,588.0000
2019-04-11T13:59:00.125Z,586.0000
2019-04-11T13:59:07.118Z,588.0000
2019-04-11T13:59:14.083Z,587.0000
2019-04-11T13:59:20.235Z,587.0000
2019-04-11T13:59:27.154Z,587.0000
2019-04-11T13:59:34.135Z,588.0000
2019-04-11T13:59:40.167Z,586.0000
2019-04-11T13:59:47.115Z,588.0000
2019-04-11T13:59:54.115Z,587.0000
2019-04-11T14:00:01.157Z,588.0000
2019-04-11T14:00:08.105Z,587.0000
2019-04-11T14:00:15.143Z,588.0000
2019-04-11T14:00:22.194Z,588.0000
2019-04-11T14:00:29.138Z,588.0000
2019-04-11T14:00:36.144Z,588.0000
2019-04-11T14:00:43.145Z,588.0000
2019-04-11T14:00:50.142Z,588.0000
2019-04-11T14:00:57.168Z,587.0000
2019-04-11T14:01:04.165Z,587.0000
2019-04-11T14:01:11.215Z,587.0000
2019-04-11T14:01:18.151Z,587.0000
2019-04-11T14:01:25.243Z,586.0000
2019-04-11T14:01:32.146Z,587.0000
2019-04-11T14:01:39.141Z,587.0000
2019-04-11T14:01:45.126Z,586.0000
2019-04-11T14:01:52.213Z,585.0000
2019-04-11T14:01:59.142Z,585.0000
2019-04-11T14:02:06.132Z,585.0000
2019-04-11T14:02:13.123Z,584.0000
2019-04-11T14:02:20.088Z,584.0000
2019-04-11T14:02:27.209Z,584.0000
2019-04-11T14:02:34.142Z,583.0000
2019-04-11T14:02:50.620Z,584.0000
2019-04-11T14:02:53.160Z,583.0000
2019-04-11T14:03:00.189Z,582.0000
2019-04-11T14:03:07.130Z,582.0000
2019-04-11T14:03:14.111Z,581.0000
2019-04-11T14:03:21.155Z,581.0000
2019-04-11T14:03:27.188Z,581.0000
2019-04-11T14:03:34.135Z,583.0000
2019-04-11T14:03:41.154Z,581.0000
2019-04-11T14:03:48.138Z,581.0000
2019-04-11T14:03:55.200Z,580.0000
2019-04-11T14:04:02.131Z,580.0000
2019-04-11T14:04:09.096Z,579.0000
2019-04-11T14:04:16.131Z,579.0000
2019-04-11T14:04:23.118Z,579.0000
2019-04-11T14:04:30.190Z,579.0000
2019-04-11T14:04:38.604Z,579.0000
2019-04-11T14:04:46.187Z,579.0000
2019-04-11T14:04:54.474Z,579.0000
2019-04-11T14:05:02.204Z,579.0000
2019-04-11T14:05:10.682Z,579.0000
2019-04-11T14:05:17.148Z,579.0000
2019-04-11T14:05:24.261Z,578.0000
2019-04-11T14:05:31.220Z,579.0000
2019-04-11T14:05:38.087Z,578.0000
2019-04-11T14:05:45.113Z,579.0000
2019-04-11T14:05:52.176Z,578.0000
2019-04-11T14:05:59.212Z,578.0000
2019-04-11T14:06:06.150Z,579.0000
2019-04-11T14:06:13.170Z,578.0000
2019-04-11T14:06:20.111Z,579.0000
2019-04-11T14:06:27.164Z,579.0000
2019-04-11T14:06:34.244Z,578.0000
2019-04-11T14:06:41.138Z,579.0000
2019-04-11T14:06:48.164Z,578.0000
2019-04-11T14:06:55.163Z,579.0000
2019-04-11T14:07:02.166Z,578.0000
2019-04-11T14:07:09.149Z,579.0000
2019-04-11T14:07:16.082Z,578.0000
2019-04-11T14:07:23.622Z,579.0000
2019-04-11T14:07:31.099Z,578.0000
2019-04-11T14:07:38.210Z,578.0000
2019-04-11T14:07:45.110Z,577.0000
2019-04-11T14:07:52.111Z,578.0000
2019-04-11T14:07:59.145Z,578.0000
2019-04-11T14:08:06.177Z,577.0000
2019-04-11T14:08:13.117Z,577.0000
2019-04-11T14:08:20.170Z,577.0000
2019-04-11T14:08:27.177Z,577.0000
2019-04-11T14:08:34.163Z,578.0000
2019-04-11T14:08:41.220Z,576.0000
2019-04-11T14:08:48.135Z,575.0000
2019-04-11T14:08:55.145Z,572.0000
2019-04-11T14:09:02.144Z,573.0000
2019-04-11T14:22:17.628Z,572.0000
2019-04-11T14:22:28.916Z,572.0000
2019-04-11T14:22:36.302Z,571.0000
2019-04-11T14:22:43.591Z,572.0000
2019-04-11T14:22:51.255Z,571.0000
2019-04-11T14:22:57.283Z,572.0000
2019-04-11T14:23:04.329Z,572.0000
2019-04-11T14:23:13.805Z,572.0000
2019-04-11T14:23:22.504Z,571.0000
2019-04-11T14:23:29.266Z,571.0000
2019-04-11T14:23:36.299Z,570.0000
2019-04-11T14:23:43.331Z,572.0000
2019-04-11T14:23:50.288Z,571.0000
2019-04-11T14:23:57.310Z,570.0000
2019-04-11T14:24:04.265Z,570.0000
2019-04-11T14:24:11.586Z,571.0000
2019-04-11T14:24:19.270Z,571.0000
2019-04-11T14:24:26.332Z,571.0000
2019-04-11T14:24:33.254Z,570.0000
2019-04-11T14:24:41.790Z,570.0000
2019-04-11T14:24:49.295Z,570.0000
2019-04-11T14:24:56.356Z,570.0000
2019-04-11T14:25:03.291Z,571.0000
2019-04-11T14:25:13.499Z,570.0000
2019-04-11T14:25:22.281Z,570.0000
2019-04-11T14:25:29.350Z,569.0000
2019-04-11T14:25:36.241Z,570.0000
2019-04-11T14:25:43.275Z,570.0000
2019-04-11T14:25:49.301Z,570.0000
2019-04-11T14:25:56.301Z,569.0000
2019-04-11T14:26:03.276Z,569.0000
2019-04-11T14:26:10.263Z,569.0000
2019-04-11T14:26:17.262Z,569.0000
2019-04-11T14:26:24.294Z,570.0000
2019-04-11T14:26:31.320Z,568.0000
2019-04-11T14:26:38.282Z,569.0000
2019-04-11T14:26:45.297Z,569.0000
2019-04-11T14:26:51.288Z,568.0000
2019-04-11T14:26:58.262Z,569.0000
2019-04-11T14:27:05.313Z,569.0000
2019-04-11T14:27:12.281Z,568.0000
2019-04-11T14:27:19.343Z,568.0000
2019-04-11T14:27:26.281Z,569.0000
2019-04-11T14:27:33.374Z,569.0000
2019-04-11T14:27:40.288Z,568.0000
2019-04-11T14:27:47.332Z,569.0000
2019-04-11T14:27:54.300Z,569.0000
2019-04-11T14:28:01.270Z,569.0000
2019-04-11T14:28:08.357Z,569.0000
2019-04-11T14:28:15.274Z,569.0000
2019-04-11T14:28:22.326Z,569.0000
2019-04-11T14:28:28.288Z,569.0000
2019-04-11T14:28:35.314Z,570.0000
2019-04-11T14:28:42.303Z,571.0000
2019-04-11T14:28:49.294Z,570.0000
2019-04-11T14:28:56.246Z,570.0000
2019-04-11T14:29:03.242Z,570.0000
2019-04-11T14:29:10.330Z,570.0000
2019-04-11T14:29:17.303Z,570.0000
2019-04-11T14:29:24.261Z,569.0000
2019-04-11T14:29:31.271Z,569.0000
2019-04-11T14:29:38.348Z,569.0000
2019-04-11T14:29:45.260Z,569.0000
2019-04-11T14:29:52.281Z,567.0000
2019-04-11T14:29:59.291Z,570.0000
2019-04-11T14:30:06.317Z,569.0000
2019-04-11T14:30:12.295Z,569.0000
2019-04-11T14:30:19.341Z,570.0000
2019-04-11T14:30:26.282Z,570.0000
2019-04-11T14:30:33.278Z,570.0000
2019-04-11T14:30:40.352Z,570.0000
2019-04-11T14:30:51.645Z,570.0000
2019-04-11T14:30:59.304Z,570.0000
2019-04-11T14:31:06.314Z,569.0000
2019-04-11T14:31:12.280Z,569.0000
2019-04-11T14:31:21.957Z,570.0000
2019-04-11T14:31:29.303Z,570.0000
2019-04-11T14:31:36.292Z,571.0000
2019-04-11T14:31:43.372Z,570.0000
2019-04-11T14:31:50.867Z,570.0000
2019-04-11T14:32:00.246Z,570.0000
2019-04-11T14:32:07.277Z,570.0000
2019-04-11T14:32:14.290Z,570.0000
2019-04-11T14:32:23.184Z,571.0000
2019-04-11T14:32:30.280Z,571.0000
2019-04-11T14:32:37.295Z,571.0000
2019-04-11T14:32:44.315Z,571.0000
2019-04-11T14:32:51.766Z,570.0000
2019-04-11T14:33:01.238Z,571.0000
2019-04-11T14:33:08.264Z,570.0000
2019-04-11T14:33:15.311Z,571.0000
2019-04-11T14:33:25.184Z,570.0000
2019-04-11T14:33:34.294Z,572.0000
2019-04-11T14:33:41.282Z,571.0000
2019-04-11T14:33:48.332Z,571.0000
2019-04-11T14:33:55.964Z,571.0000
2019-04-11T14:34:03.285Z,570.0000
2019-04-11T14:34:10.265Z,571.0000
2019-04-11T14:34:16.235Z,572.0000
2019-04-11T14:34:23.283Z,571.0000
2019-04-11T14:34:30.305Z,572.0000
2019-04-11T14:34:37.284Z,572.0000
2019-04-11T14:34:44.273Z,572.0000
2019-04-11T14:34:51.397Z,571.0000
2019-04-11T14:34:58.307Z,571.0000
2019-04-11T14:35:05.307Z,572.0000
2019-04-11T14:35:12.253Z,572.0000
2019-04-11T14:35:19.316Z,572.0000
2019-04-11T14:35:26.301Z,572.0000
2019-04-11T14:35:33.288Z,573.0000
2019-04-11T14:35:39.266Z,572.0000
2019-04-11T14:35:46.312Z,572.0000
2019-04-11T14:35:53.337Z,572.0000
2019-04-11T14:36:00.299Z,573.0000
2019-04-11T14:36:07.282Z,572.0000
2019-04-11T14:36:14.277Z,573.0000
2019-04-11T14:36:32.601Z,573.0000
2019-04-11T14:36:33.957Z,573.0000
2019-04-11T14:36:41.297Z,570.0000
2019-04-11T14:36:48.312Z,569.0000
2019-04-11T14:36:55.359Z,571.0000
2019-04-11T14:37:02.274Z,573.0000
